Sonic Adventure (DX): Boss Rankings

Records: Times | Rings | Scores | Races | Bosses | Freestyle
Leaders: Times | Rings | Scores | Races | Bosses | Freestyle | Overall
Rank Player Percent Points Date
1 Sonicspeedruner 98.5% 29 05-14-15
2 Gamepro011 97.2% 57 05-14-15
3 Austinf 93.2% 138 05-14-15
4 DarkPolarNight 92.2% 158 05-14-15
5 Jawzun 90.2% 198 05-14-15
6 Parax 88.6% 232 05-14-15
7 ike6252 88.0% 244 05-14-15
8 Dashjump 86.1% 282 05-14-15
9 Avento128bits 85.4% 297 05-14-15
10 DarkspinesSonic 82.4% 358 05-14-15
11 Coolfansonic 80.8% 390 05-14-15
12 THC98 79.2% 422 05-14-15
13 F-Man 77.8% 451 05-14-15
14 TheRealShadnic 77.4% 459 05-14-15
15 Marth 76.9% 470 05-14-15
16 yoshifan 75.2% 504 05-14-15
17 PfoSonic 73.6% 537 05-14-15
18 InferSaime 73.2% 545 05-14-15
19 drminus 71.8% 573 05-14-15
20 HyperSonic7701 71.7% 576 05-14-15
21 RPGnutter 70.6% 597 05-14-15
22 Paragod 69.1% 628 05-14-15
23 mike89 68.6% 638 05-14-15
24 frankoredstrato 68.5% 641 05-14-15
25 Groudon199 64.2% 728 05-14-15
26 sonicam 64.1% 730 05-14-15
27 SadisticMystic 63.3% 746 05-14-15
28 Stefan 62.1% 770 05-14-15
29 Diamond 61.1% 792 05-14-15
30 Mariobutch 59.1% 831 05-14-15
31 Combo 58.3% 847 05-14-15
32 bertin 58.2% 850 05-14-15
33 xXMegaManXx 56.3% 889 05-14-15
34 SkyLights 55.5% 904 05-14-15
35 Dawid8404 51.7% 982 05-14-15
36 Fr3nZy 50.0% 1018 05-14-15
37 francisco 49.8% 1021 05-14-15
38 OmegaDJ 47.5% 1067 05-14-15
39 Omega Rafael Santos 46.3% 1092 05-14-15
40 Arch 46.2% 1095 05-14-15
41 P1 Pause 44.9% 1120 05-14-15
42 Andrea Ritsu 42.5% 1170 05-14-15
42 magnum12 42.5% 1170 05-14-15
44 Auriman1 38.4% 1253 05-14-15
45 James_Bertolli 36.0% 1303 05-14-15
46 teamblackarms 34.3% 1336 05-14-15
47 FuzZerd 33.8% 1347 05-14-15
48 Hunters13 33.7% 1349 05-14-15
49 Psymar 32.5% 1373 05-14-15
50 Quartz 32.4% 1375 05-14-15
51 eggFL 31.9% 1385 05-14-15
52 Cyan Ryan 31.6% 1392 05-14-15
53 GerbilSoft 30.7% 1410 05-14-15
54 elecmouse101 30.4% 1416 05-14-15
55 Thorn 30.3% 1418 05-14-15
56 Webber3000 30.0% 1425 05-14-15
57 videogamemaster777 29.7% 1431 05-14-15
58 Mo Player Banned 28.8% 1449 05-14-15
59 Turbos 28.1% 1462 05-14-15
60 Termon 27.3% 1479 05-14-15
61 Dave Cramer 26.1% 1503 05-14-15
62 Flying Fox 25.9% 1507 05-14-15
63 buddychaos0415 25.4% 1517 05-14-15
64 nuckrieg 25.1% 1524 05-14-15
65 Shadow Jacky 23.7% 1552 05-14-15
66 Cream147 21.6% 1596 05-14-15
67 supersonicfan 21.1% 1605 05-14-15
68 MiStEr_ShAoLiN 20.9% 1609 05-14-15
69 NintenDan 20.8% 1611 05-14-15
70 itsPersonnal 20.7% 1614 05-14-15
71 The T 20.5% 1617 05-14-15
72 Nimrod 20.5% 1618 05-14-15
73 Cybrax 20.2% 1623 05-14-15
74 supersonic465 20.0% 1627 05-14-15
75 Aitamen 19.5% 1637 05-14-15
75 SonicWinDX 19.5% 1637 05-14-15
77 Cruizer 18.9% 1650 05-14-15
78 VMU Player Banned 18.0% 1668 05-14-15
79 Game_Complete 17.4% 1680 05-14-15
80 The Great Lord Mick 16.6% 1698 05-14-15
81 Questionguy555 16.0% 1709 05-14-15
82 Drakodan 16.0% 1710 05-14-15
83 GreatStar 15.8% 1714 05-14-15
84 Spinballwizard 15.1% 1727 05-14-15
85 Sondow 14.4% 1742 05-14-15
86 sonicandamy 14.3% 1744 05-14-15
87 GarnetPrincess 13.2% 1766 05-14-15
88 SonicAD 12.2% 1787 05-14-15
89 Don 11.3% 1804 05-14-15
90 Miles9999 11.1% 1808 05-14-15
91 Siavash Tazari 10.8% 1816 05-14-15
92 BigAL49 10.3% 1825 05-14-15
93 Psyknux 10.1% 1829 05-14-15
94 Werey 10.0% 1831 05-14-15
95 Cutiefox 9.9% 1834 05-14-15
96 joecoolgames 9.8% 1836 05-14-15
97 knuckles_sonic8 9.6% 1839 05-14-15
98 mauserman 9.3% 1845 05-14-15
99 EngiNerd 8.8% 1856 05-14-15
100 Sonic Singularity 8.6% 1859 05-14-15
101 dShadow 8.4% 1863 05-14-15
102 Hipertails12 8.3% 1866 05-14-15
103 Shanekilz 8.0% 1873 05-14-15
104 Therio 7.6% 1880 05-14-15
105 Mastakirby 7.5% 1883 05-14-15
106 chainchumper 7.1% 1890 05-14-15
107 sonic29887 6.9% 1894 05-14-15
108 TheChaosEmeraIds 6.8% 1897 05-14-15
109 FocusSight64 6.7% 1898 05-14-15
110 Chao_Fan 6.6% 1900 05-14-15
111 HHNNBBHHN 6.1% 1911 05-14-15
112 tal39h 6.0% 1912 05-14-15
113 djmat 5.9% 1914 05-14-15
114 paulie9990 5.7% 1918 05-14-15
115 Sogeking 5.5% 1922 05-14-15
116 Brian_pso 5.0% 1933 05-14-15
117 Chawkk 5.0% 1934 05-14-15
118 SilvertheAlmighty 4.7% 1940 05-14-15
119 MK 4.5% 1943 05-14-15
119 SpinDashMaster 4.5% 1943 05-14-15
121 MastaToken 4.3% 1947 05-14-15
122 SpiritDragon1995 3.9% 1956 05-14-15
123 Sonique Hedgehog 3.8% 1958 05-14-15
124 KinkyCadence 3.6% 1962 05-14-15
125 Mad Andy 3.5% 1964 05-14-15
126 PsyBorg 3.3% 1967 05-14-15
127 FSSRandomvids 3.2% 1970 05-14-15
128 Xia 2.9% 1976 05-14-15
129 Rolken 2.8% 1977 05-14-15
130 andres430 2.6% 1983 05-14-15
131 crazy1993 2.2% 1990 05-14-15
131 dabestgamer 2.2% 1990 05-14-15
133 shadowblast63 Player Banned 2.2% 1991 05-14-15
134 Illidan 2.1% 1993 05-14-15
135 Richied 2.0% 1994 05-14-15
136 DanielTheFalcon 1.8% 1998 05-14-15
136 gamer1245 1.8% 1998 05-14-15
138 Iwannabelink 1.8% 1999 05-14-15
139 oTaiIilLsS 1.4% 2007 05-14-15
140 soniccoloursunleashed 1.3% 2009 05-14-15
141 niscool 1.2% 2010 05-14-15
142 ieatatsonic 1.1% 2013 05-14-15
143 Redd 1.0% 2014 05-14-15
144 Lil_Dude 0.7% 2020 05-14-15
144 LinksDarkArrows 0.7% 2020 05-14-15
146 Cbwade15 0.4% 2026 05-14-15
147 neaolas 0.3% 2029 05-14-15
148 BlankTH 0.2% 2031 05-14-15
149 Heroes_Hater 0.1% 2032 05-14-15
150 S-MS32X-S 0.0% 2034 05-14-15
151 KaM Mark MaK 0.0% 2036 05-14-15
151 MegabombBlade 0.0% 2036 05-14-15

This page is using the New Data Table System. [FUTURE]

Game ID: 3 | Category ID: 6
Hits: 3,932 | Hits This Month: 24 | DB Calls: 24 | Mem Usage: 5.34 MB | Time: 0.06s | Printable

The Sonic Center v3.9
Copyright 2003-2011 by The Sonic Center Team.